sensor_id;sensor_type;location;lat;lon;timestamp;pressure;altitude;pressure_sealevel;temperature;humidity
61939;BME280;47897;50.322;18.892;2022-08-01T00:01:49;98155.38;;;14.11;92.83
61939;BME280;47897;50.322;18.892;2022-08-01T00:04:16;98149.14;;;14.08;92.64
61939;BME280;47897;50.322;18.892;2022-08-01T00:06:42;98147.96;;;14.06;92.71
61939;BME280;47897;50.322;18.892;2022-08-01T00:09:09;98149.52;;;14.01;92.28
61939;BME280;47897;50.322;18.892;2022-08-01T00:11:36;98148.42;;;13.94;92.63
61939;BME280;47897;50.322;18.892;2022-08-01T00:14:03;98150.22;;;13.92;92.75
61939;BME280;47897;50.322;18.892;2022-08-01T00:16:30;98152.14;;;13.89;92.70
61939;BME280;47897;50.322;18.892;2022-08-01T00:18:57;98156.83;;;13.84;92.25
61939;BME280;47897;50.322;18.892;2022-08-01T00:21:24;98153.89;;;13.80;92.69
61939;BME280;47897;50.322;18.892;2022-08-01T00:23:51;98149.33;;;13.77;92.65
61939;BME280;47897;50.322;18.892;2022-08-01T00:26:18;98149.09;;;13.76;92.59
61939;BME280;47897;50.322;18.892;2022-08-01T00:28:45;98147.99;;;13.73;92.48
61939;BME280;47897;50.322;18.892;2022-08-01T00:31:12;98143.35;;;13.72;92.73
61939;BME280;47897;50.322;18.892;2022-08-01T00:33:39;98142.07;;;13.70;92.63
61939;BME280;47897;50.322;18.892;2022-08-01T00:36:06;98137.19;;;13.68;92.74
61939;BME280;47897;50.322;18.892;2022-08-01T00:38:33;98137.21;;;13.65;92.35
61939;BME280;47897;50.322;18.892;2022-08-01T00:41:00;98135.46;;;13.61;92.48
61939;BME280;47897;50.322;18.892;2022-08-01T00:43:27;98129.39;;;13.58;92.62
61939;BME280;47897;50.322;18.892;2022-08-01T00:45:54;98134.05;;;13.55;92.49
61939;BME280;47897;50.322;18.892;2022-08-01T00:48:21;98134.09;;;13.51;92.57
61939;BME280;47897;50.322;18.892;2022-08-01T00:50:48;98137.84;;;13.50;92.42
61939;BME280;47897;50.322;18.892;2022-08-01T00:53:16;98138.34;;;13.48;92.54
61939;BME280;47897;50.322;18.892;2022-08-01T00:55:43;98141.56;;;13.45;92.52
61939;BME280;47897;50.322;18.892;2022-08-01T00:58:09;98139.55;;;13.42;92.30
61939;BME280;47897;50.322;18.892;2022-08-01T01:00:36;98144.69;;;13.41;92.48
61939;BME280;47897;50.322;18.892;2022-08-01T01:03:03;98142.23;;;13.38;92.47
61939;BME280;47897;50.322;18.892;2022-08-01T01:05:33;98141.02;;;13.35;92.45
61939;BME280;47897;50.322;18.892;2022-08-01T01:08:08;98143.59;;;13.34;92.47
61939;BME280;47897;50.322;18.892;2022-08-01T01:10:50;98141.30;;;13.32;92.34
61939;BME280;47897;50.322;18.892;2022-08-01T01:16:00;98145.63;;;13.25;92.23
61939;BME280;47897;50.322;18.892;2022-08-01T01:18:33;98146.11;;;13.22;91.91
61939;BME280;47897;50.322;18.892;2022-08-01T01:21:13;98142.27;;;13.18;92.05
61939;BME280;47897;50.322;18.892;2022-08-01T01:29:42;98132.34;;;13.10;92.07
61939;BME280;47897;50.322;18.892;2022-08-01T01:32:24;98130.36;;;13.07;91.96
61939;BME280;47897;50.322;18.892;2022-08-01T01:34:56;98127.02;;;13.05;91.98
61939;BME280;47897;50.322;18.892;2022-08-01T01:37:26;98131.48;;;13.03;91.92
61939;BME280;47897;50.322;18.892;2022-08-01T01:39:54;98128.95;;;13.00;92.04
61939;BME280;47897;50.322;18.892;2022-08-01T01:42:24;98124.88;;;12.99;91.88
61939;BME280;47897;50.322;18.892;2022-08-01T01:44:53;98123.51;;;12.97;91.99
61939;BME280;47897;50.322;18.892;2022-08-01T01:47:22;98123.66;;;12.95;92.03
61939;BME280;47897;50.322;18.892;2022-08-01T01:49:50;98123.92;;;12.92;91.92
61939;BME280;47897;50.322;18.892;2022-08-01T01:52:21;98121.28;;;12.90;92.10
61939;BME280;47897;50.322;18.892;2022-08-01T01:54:51;98126.64;;;12.88;92.27
61939;BME280;47897;50.322;18.892;2022-08-01T01:57:19;98126.10;;;12.86;92.10
61939;BME280;47897;50.322;18.892;2022-08-01T01:59:47;98125.30;;;12.83;92.09
61939;BME280;47897;50.322;18.892;2022-08-01T02:02:16;98124.82;;;12.79;91.98
61939;BME280;47897;50.322;18.892;2022-08-01T02:04:45;98123.71;;;12.77;92.05
61939;BME280;47897;50.322;18.892;2022-08-01T02:07:18;98124.10;;;12.75;92.15
61939;BME280;47897;50.322;18.892;2022-08-01T02:09:47;98122.84;;;12.73;92.17
61939;BME280;47897;50.322;18.892;2022-08-01T02:12:16;98119.64;;;12.70;91.94
61939;BME280;47897;50.322;18.892;2022-08-01T02:14:45;98119.71;;;12.68;92.13
61939;BME280;47897;50.322;18.892;2022-08-01T02:17:16;98120.13;;;12.65;91.84
61939;BME280;47897;50.322;18.892;2022-08-01T02:19:44;98115.56;;;12.62;92.06
61939;BME280;47897;50.322;18.892;2022-08-01T02:22:18;98114.77;;;12.59;92.45
61939;BME280;47897;50.322;18.892;2022-08-01T02:24:55;98114.52;;;12.57;92.53
61939;BME280;47897;50.322;18.892;2022-08-01T02:27:41;98117.58;;;12.55;92.47
61939;BME280;47897;50.322;18.892;2022-08-01T02:30:12;98119.50;;;12.53;92.60
61939;BME280;47897;50.322;18.892;2022-08-01T02:32:47;98124.70;;;12.52;92.51
61939;BME280;47897;50.322;18.892;2022-08-01T02:35:26;98122.70;;;12.50;92.75
61939;BME280;47897;50.322;18.892;2022-08-01T02:37:55;98120.13;;;12.49;92.67
61939;BME280;47897;50.322;18.892;2022-08-01T02:40:26;98124.46;;;12.46;92.49
61939;BME280;47897;50.322;18.892;2022-08-01T02:42:55;98123.67;;;12.45;92.55
61939;BME280;47897;50.322;18.892;2022-08-01T02:45:25;98121.75;;;12.43;92.60
61939;BME280;47897;50.322;18.892;2022-08-01T02:47:59;98123.49;;;12.42;92.73
61939;BME280;47897;50.322;18.892;2022-08-01T02:50:29;98122.39;;;12.40;92.75
61939;BME280;47897;50.322;18.892;2022-08-01T02:52:57;98123.59;;;12.38;92.78
61939;BME280;47897;50.322;18.892;2022-08-01T02:55:25;98124.70;;;12.34;92.47
61939;BME280;47897;50.322;18.892;2022-08-01T02:57:54;98124.63;;;12.31;92.74
61939;BME280;47897;50.322;18.892;2022-08-01T03:00:23;98124.38;;;12.29;92.78
61939;BME280;47897;50.322;18.892;2022-08-01T03:02:52;98125.89;;;12.26;92.75
61939;BME280;47897;50.322;18.892;2022-08-01T03:05:22;98126.85;;;12.23;92.49
61939;BME280;47897;50.322;18.892;2022-08-01T03:07:51;98122.77;;;12.21;92.66
61939;BME280;47897;50.322;18.892;2022-08-01T03:10:20;98123.42;;;12.19;92.65
61939;BME280;47897;50.322;18.892;2022-08-01T03:12:49;98124.15;;;12.18;92.67
61939;BME280;47897;50.322;18.892;2022-08-01T03:15:18;98120.70;;;12.16;92.79
61939;BME280;47897;50.322;18.892;2022-08-01T03:17:47;98118.14;;;12.15;92.79
61939;BME280;47897;50.322;18.892;2022-08-01T03:20:17;98116.07;;;12.13;92.72
61939;BME280;47897;50.322;18.892;2022-08-01T03:22:46;98117.44;;;12.11;92.90
61939;BME280;47897;50.322;18.892;2022-08-01T03:25:16;98114.39;;;12.10;92.78
61939;BME280;47897;50.322;18.892;2022-08-01T03:27:50;98114.70;;;12.09;92.74
61939;BME280;47897;50.322;18.892;2022-08-01T03:30:18;98118.95;;;12.07;92.83
61939;BME280;47897;50.322;18.892;2022-08-01T03:32:45;98124.86;;;12.05;92.93
61939;BME280;47897;50.322;18.892;2022-08-01T03:35:12;98123.00;;;12.03;92.99
61939;BME280;47897;50.322;18.892;2022-08-01T03:37:48;98125.95;;;12.01;92.98
61939;BME280;47897;50.322;18.892;2022-08-01T03:40:30;98127.88;;;12.00;92.83
61939;BME280;47897;50.322;18.892;2022-08-01T03:43:05;98129.55;;;11.99;92.87
61939;BME280;47897;50.322;18.892;2022-08-01T03:45:36;98128.60;;;11.97;92.90
61939;BME280;47897;50.322;18.892;2022-08-01T03:48:16;98128.44;;;11.97;92.81
61939;BME280;47897;50.322;18.892;2022-08-01T03:50:50;98130.10;;;11.96;93.05
61939;BME280;47897;50.322;18.892;2022-08-01T03:53:24;98133.61;;;11.96;93.17
61939;BME280;47897;50.322;18.892;2022-08-01T03:55:53;98133.30;;;11.96;93.60
61939;BME280;47897;50.322;18.892;2022-08-01T03:58:21;98132.73;;;11.96;93.45
61939;BME280;47897;50.322;18.892;2022-08-01T04:00:49;98134.41;;;11.96;93.66
61939;BME280;47897;50.322;18.892;2022-08-01T04:03:16;98138.89;;;11.95;93.61
61939;BME280;47897;50.322;18.892;2022-08-01T04:05:43;98139.52;;;11.89;93.70
61939;BME280;47897;50.322;18.892;2022-08-01T04:08:11;98141.85;;;11.85;94.24
61939;BME280;47897;50.322;18.892;2022-08-01T04:10:38;98141.36;;;11.84;94.57
61939;BME280;47897;50.322;18.892;2022-08-01T04:13:05;98145.99;;;11.85;94.78
61939;BME280;47897;50.322;18.892;2022-08-01T04:15:32;98143.42;;;11.83;94.92
61939;BME280;47897;50.322;18.892;2022-08-01T04:17:59;98146.25;;;11.77;95.52
61939;BME280;47897;50.322;18.892;2022-08-01T04:20:26;98149.44;;;11.73;95.83
61939;BME280;47897;50.322;18.892;2022-08-01T04:22:53;98148.14;;;11.68;96.35
61939;BME280;47897;50.322;18.892;2022-08-01T04:25:28;98146.08;;;11.66;96.82
61939;BME280;47897;50.322;18.892;2022-08-01T04:27:57;98142.15;;;11.70;97.28
61939;BME280;47897;50.322;18.892;2022-08-01T04:30:29;98138.58;;;11.74;97.47
61939;BME280;47897;50.322;18.892;2022-08-01T04:32:59;98139.80;;;11.80;97.79
61939;BME280;47897;50.322;18.892;2022-08-01T04:35:27;98140.56;;;11.86;97.93
61939;BME280;47897;50.322;18.892;2022-08-01T04:37:55;98143.92;;;11.92;98.12
61939;BME280;47897;50.322;18.892;2022-08-01T04:40:23;98141.46;;;11.97;98.13
61939;BME280;47897;50.322;18.892;2022-08-01T04:42:53;98139.14;;;12.03;98.29
61939;BME280;47897;50.322;18.892;2022-08-01T04:45:20;98141.00;;;12.09;98.59
61939;BME280;47897;50.322;18.892;2022-08-01T04:47:49;98139.72;;;12.14;98.84
61939;BME280;47897;50.322;18.892;2022-08-01T04:50:16;98140.45;;;12.21;99.20
61939;BME280;47897;50.322;18.892;2022-08-01T04:52:43;98145.58;;;12.27;99.65
61939;BME280;47897;50.322;18.892;2022-08-01T04:55:10;98145.01;;;12.34;99.84
61939;BME280;47897;50.322;18.892;2022-08-01T04:57:40;98145.48;;;12.42;100.00
61939;BME280;47897;50.322;18.892;2022-08-01T05:00:09;98139.89;;;12.49;100.00
61939;BME280;47897;50.322;18.892;2022-08-01T05:02:37;98139.81;;;12.57;100.00
61939;BME280;47897;50.322;18.892;2022-08-01T05:05:05;98140.69;;;12.63;100.00
61939;BME280;47897;50.322;18.892;2022-08-01T05:07:32;98145.00;;;12.69;100.00
61939;BME280;47897;50.322;18.892;2022-08-01T05:10:04;98143.23;;;12.77;100.00
61939;BME280;47897;50.322;18.892;2022-08-01T05:12:31;98141.23;;;12.84;100.00
61939;BME280;47897;50.322;18.892;2022-08-01T05:14:59;98144.73;;;12.92;100.00
61939;BME280;47897;50.322;18.892;2022-08-01T05:17:26;98143.67;;;12.98;100.00
61939;BME280;47897;50.322;18.892;2022-08-01T05:19:53;98141.80;;;13.07;100.00
61939;BME280;47897;50.322;18.892;2022-08-01T05:22:20;98139.06;;;13.16;100.00
61939;BME280;47897;50.322;18.892;2022-08-01T05:24:47;98138.98;;;13.28;100.00
61939;BME280;47897;50.322;18.892;2022-08-01T05:27:13;98136.75;;;13.41;100.00
61939;BME280;47897;50.322;18.892;2022-08-01T05:29:40;98132.47;;;13.52;100.00
61939;BME280;47897;50.322;18.892;2022-08-01T05:32:07;98136.56;;;13.67;100.00
61939;BME280;47897;50.322;18.892;2022-08-01T05:34:34;98138.96;;;13.82;100.00
61939;BME280;47897;50.322;18.892;2022-08-01T05:37:01;98143.15;;;13.94;100.00
61939;BME280;47897;50.322;18.892;2022-08-01T05:39:29;98142.75;;;14.06;100.00
61939;BME280;47897;50.322;18.892;2022-08-01T05:41:56;98138.81;;;14.18;100.00
61939;BME280;47897;50.322;18.892;2022-08-01T05:44:23;98136.00;;;14.30;100.00
61939;BME280;47897;50.322;18.892;2022-08-01T05:46:50;98136.71;;;14.41;100.00
61939;BME280;47897;50.322;18.892;2022-08-01T05:49:17;98136.96;;;14.53;100.00
61939;BME280;47897;50.322;18.892;2022-08-01T05:51:44;98134.52;;;14.66;100.00
61939;BME280;47897;50.322;18.892;2022-08-01T05:54:11;98138.00;;;14.80;100.00
61939;BME280;47897;50.322;18.892;2022-08-01T05:56:38;98142.84;;;14.94;100.00
61939;BME280;47897;50.322;18.892;2022-08-01T05:59:05;98146.41;;;15.07;99.81
61939;BME280;47897;50.322;18.892;2022-08-01T06:01:32;98150.22;;;15.19;99.02
61939;BME280;47897;50.322;18.892;2022-08-01T06:03:59;98150.15;;;15.32;98.28
61939;BME280;47897;50.322;18.892;2022-08-01T06:06:26;98159.07;;;15.46;96.19
61939;BME280;47897;50.322;18.892;2022-08-01T06:08:53;98161.31;;;15.61;96.33
61939;BME280;47897;50.322;18.892;2022-08-01T06:11:20;98167.30;;;15.72;94.99
61939;BME280;47897;50.322;18.892;2022-08-01T06:13:47;98165.05;;;15.83;94.79
61939;BME280;47897;50.322;18.892;2022-08-01T06:16:14;98163.55;;;15.93;94.81
61939;BME280;47897;50.322;18.892;2022-08-01T06:18:41;98169.23;;;16.01;94.12
61939;BME280;47897;50.322;18.892;2022-08-01T06:21:08;98167.60;;;16.09;91.02
61939;BME280;47897;50.322;18.892;2022-08-01T06:23:35;98164.88;;;16.19;89.64
61939;BME280;47897;50.322;18.892;2022-08-01T06:26:02;98161.09;;;16.30;88.57
61939;BME280;47897;50.322;18.892;2022-08-01T06:28:29;98157.70;;;16.41;89.00
61939;BME280;47897;50.322;18.892;2022-08-01T06:30:56;98166.62;;;16.48;87.52
61939;BME280;47897;50.322;18.892;2022-08-01T06:33:26;98171.14;;;16.57;87.93
61939;BME280;47897;50.322;18.892;2022-08-01T06:35:53;98166.51;;;16.64;87.63
61939;BME280;47897;50.322;18.892;2022-08-01T06:38:20;98164.16;;;16.72;87.71
61939;BME280;47897;50.322;18.892;2022-08-01T06:40:47;98169.73;;;16.80;87.90
61939;BME280;47897;50.322;18.892;2022-08-01T06:43:14;98169.65;;;16.89;86.74
61939;BME280;47897;50.322;18.892;2022-08-01T06:45:42;98166.07;;;17.01;84.18
61939;BME280;47897;50.322;18.892;2022-08-01T06:48:09;98167.96;;;17.16;83.37
61939;BME280;47897;50.322;18.892;2022-08-01T06:50:36;98168.83;;;17.30;83.81
61939;BME280;47897;50.322;18.892;2022-08-01T06:53:03;98169.60;;;17.40;84.15
61939;BME280;47897;50.322;18.892;2022-08-01T06:55:30;98168.56;;;17.48;84.30
61939;BME280;47897;50.322;18.892;2022-08-01T06:57:57;98168.39;;;17.56;83.06
61939;BME280;47897;50.322;18.892;2022-08-01T07:00:26;98166.05;;;17.64;83.09
61939;BME280;47897;50.322;18.892;2022-08-01T07:02:56;98168.96;;;17.73;81.10
61939;BME280;47897;50.322;18.892;2022-08-01T07:05:23;98166.07;;;17.85;81.50
61939;BME280;47897;50.322;18.892;2022-08-01T07:07:50;98163.55;;;17.93;82.20
61939;BME280;47897;50.322;18.892;2022-08-01T07:10:18;98165.42;;;17.99;81.98
61939;BME280;47897;50.322;18.892;2022-08-01T07:12:45;98173.04;;;18.09;82.13
61939;BME280;47897;50.322;18.892;2022-08-01T07:15:12;98171.91;;;18.19;82.03
61939;BME280;47897;50.322;18.892;2022-08-01T07:17:40;98166.95;;;18.29;80.30
61939;BME280;47897;50.322;18.892;2022-08-01T07:20:09;98165.78;;;18.37;79.02
61939;BME280;47897;50.322;18.892;2022-08-01T07:22:37;98167.63;;;18.44;78.82
61939;BME280;47897;50.322;18.892;2022-08-01T07:25:05;98167.65;;;18.50;77.81
61939;BME280;47897;50.322;18.892;2022-08-01T07:27:33;98165.89;;;18.56;76.94
61939;BME280;47897;50.322;18.892;2022-08-01T07:30:00;98162.04;;;18.65;77.45
61939;BME280;47897;50.322;18.892;2022-08-01T07:32:27;98161.39;;;18.79;78.73
61939;BME280;47897;50.322;18.892;2022-08-01T07:34:56;98159.27;;;18.99;78.71
61939;BME280;47897;50.322;18.892;2022-08-01T07:37:23;98160.80;;;19.12;77.89
61939;BME280;47897;50.322;18.892;2022-08-01T07:39:50;98161.19;;;19.24;76.95
61939;BME280;47897;50.322;18.892;2022-08-01T07:42:17;98166.36;;;19.33;77.02
61939;BME280;47897;50.322;18.892;2022-08-01T07:44:44;98167.79;;;19.40;75.07
61939;BME280;47897;50.322;18.892;2022-08-01T07:47:11;98166.49;;;19.45;74.44
61939;BME280;47897;50.322;18.892;2022-08-01T07:49:38;98164.41;;;19.51;73.64
61939;BME280;47897;50.322;18.892;2022-08-01T07:52:06;98163.32;;;19.55;73.77
61939;BME280;47897;50.322;18.892;2022-08-01T07:54:33;98163.19;;;19.61;73.26
61939;BME280;47897;50.322;18.892;2022-08-01T07:57:02;98164.82;;;19.66;74.37
61939;BME280;47897;50.322;18.892;2022-08-01T07:59:29;98165.91;;;19.70;74.78
61939;BME280;47897;50.322;18.892;2022-08-01T08:01:56;98170.19;;;19.76;72.96
61939;BME280;47897;50.322;18.892;2022-08-01T08:04:23;98167.72;;;19.81;71.35
61939;BME280;47897;50.322;18.892;2022-08-01T08:06:50;98166.82;;;19.86;71.36
61939;BME280;47897;50.322;18.892;2022-08-01T08:09:17;98166.48;;;19.92;71.60
61939;BME280;47897;50.322;18.892;2022-08-01T08:11:45;98168.92;;;19.97;71.22
61939;BME280;47897;50.322;18.892;2022-08-01T08:14:12;98168.59;;;20.03;70.10
61939;BME280;47897;50.322;18.892;2022-08-01T08:16:40;98170.91;;;20.06;68.70
61939;BME280;47897;50.322;18.892;2022-08-01T08:19:07;98173.98;;;20.09;70.58
61939;BME280;47897;50.322;18.892;2022-08-01T08:21:34;98174.04;;;20.13;71.35
61939;BME280;47897;50.322;18.892;2022-08-01T08:24:00;98174.09;;;20.19;71.73
61939;BME280;47897;50.322;18.892;2022-08-01T08:26:52;98175.51;;;20.26;72.59
61939;BME280;47897;50.322;18.892;2022-08-01T08:29:23;98172.93;;;20.30;71.96
61939;BME280;47897;50.322;18.892;2022-08-01T08:31:50;98176.63;;;20.36;71.76
61939;BME280;47897;50.322;18.892;2022-08-01T08:34:19;98176.20;;;20.42;71.32
61939;BME280;47897;50.322;18.892;2022-08-01T08:36:46;98177.00;;;20.46;70.41
61939;BME280;47897;50.322;18.892;2022-08-01T08:39:13;98176.60;;;20.49;69.50
61939;BME280;47897;50.322;18.892;2022-08-01T08:41:40;98178.79;;;20.51;69.85
61939;BME280;47897;50.322;18.892;2022-08-01T08:44:08;98181.21;;;20.54;69.12
61939;BME280;47897;50.322;18.892;2022-08-01T08:46:43;98184.41;;;20.57;70.37
61939;BME280;47897;50.322;18.892;2022-08-01T08:49:13;98192.67;;;20.63;70.10
61939;BME280;47897;50.322;18.892;2022-08-01T08:51:43;98190.30;;;20.65;68.67
61939;BME280;47897;50.322;18.892;2022-08-01T08:54:11;98188.48;;;20.67;68.59
61939;BME280;47897;50.322;18.892;2022-08-01T08:56:43;98189.36;;;20.67;66.57
61939;BME280;47897;50.322;18.892;2022-08-01T08:59:12;98188.87;;;20.68;68.50
61939;BME280;47897;50.322;18.892;2022-08-01T09:01:42;98194.21;;;20.70;67.25
61939;BME280;47897;50.322;18.892;2022-08-01T09:04:10;98197.59;;;20.71;66.08
61939;BME280;47897;50.322;18.892;2022-08-01T09:06:38;98201.09;;;20.72;65.47
61939;BME280;47897;50.322;18.892;2022-08-01T09:09:09;98201.84;;;20.75;66.66
61939;BME280;47897;50.322;18.892;2022-08-01T09:11:36;98203.21;;;20.77;67.70
61939;BME280;47897;50.322;18.892;2022-08-01T09:14:16;98207.64;;;20.81;68.23
61939;BME280;47897;50.322;18.892;2022-08-01T09:17:07;98209.90;;;20.83;69.27
61939;BME280;47897;50.322;18.892;2022-08-01T09:19:41;98206.81;;;20.88;70.25
61939;BME280;47897;50.322;18.892;2022-08-01T09:22:10;98208.58;;;20.94;70.17
61939;BME280;47897;50.322;18.892;2022-08-01T09:24:38;98206.30;;;20.97;67.78
61939;BME280;47897;50.322;18.892;2022-08-01T09:27:20;98210.06;;;20.95;66.10
61939;BME280;47897;50.322;18.892;2022-08-01T09:29:51;98211.95;;;20.92;66.00
61939;BME280;47897;50.322;18.892;2022-08-01T09:32:19;98218.59;;;20.92;66.14
61939;BME280;47897;50.322;18.892;2022-08-01T09:34:46;98217.06;;;20.92;67.11
61939;BME280;47897;50.322;18.892;2022-08-01T09:37:13;98210.96;;;20.98;68.01
61939;BME280;47897;50.322;18.892;2022-08-01T09:39:44;98210.28;;;21.04;67.83
61939;BME280;47897;50.322;18.892;2022-08-01T09:44:48;98213.64;;;21.15;68.28
61939;BME280;47897;50.322;18.892;2022-08-01T09:47:15;98213.39;;;21.22;69.04
61939;BME280;47897;50.322;18.892;2022-08-01T09:49:44;98208.10;;;21.31;68.30
61939;BME280;47897;50.322;18.892;2022-08-01T09:52:20;98208.64;;;21.38;68.16
61939;BME280;47897;50.322;18.892;2022-08-01T09:54:56;98209.80;;;21.49;68.21
61939;BME280;47897;50.322;18.892;2022-08-01T09:57:24;98209.75;;;21.53;64.51
61939;BME280;47897;50.322;18.892;2022-08-01T09:59:54;98213.64;;;21.55;65.85
61939;BME280;47897;50.322;18.892;2022-08-01T10:02:41;98216.42;;;21.64;64.90
61939;BME280;47897;50.322;18.892;2022-08-01T10:05:10;98213.45;;;21.70;65.10
61939;BME280;47897;50.322;18.892;2022-08-01T10:07:58;98210.54;;;21.76;64.90
61939;BME280;47897;50.322;18.892;2022-08-01T10:10:26;98209.36;;;21.79;63.32
61939;BME280;47897;50.322;18.892;2022-08-01T10:12:56;98212.90;;;21.76;62.21
61939;BME280;47897;50.322;18.892;2022-08-01T10:15:24;98213.42;;;21.70;63.28
61939;BME280;47897;50.322;18.892;2022-08-01T10:17:57;98209.89;;;21.68;64.07
61939;BME280;47897;50.322;18.892;2022-08-01T10:20:30;98208.60;;;21.67;64.22
61939;BME280;47897;50.322;18.892;2022-08-01T10:23:00;98203.17;;;21.67;64.17
61939;BME280;47897;50.322;18.892;2022-08-01T10:25:29;98205.85;;;21.69;64.16
61939;BME280;47897;50.322;18.892;2022-08-01T10:28:02;98204.69;;;21.74;64.50
61939;BME280;47897;50.322;18.892;2022-08-01T10:30:37;98204.75;;;21.79;64.36
61939;BME280;47897;50.322;18.892;2022-08-01T10:33:04;98200.17;;;21.84;63.91
61939;BME280;47897;50.322;18.892;2022-08-01T10:35:31;98200.00;;;21.89;64.05
61939;BME280;47897;50.322;18.892;2022-08-01T10:37:59;98206.25;;;21.93;62.84
61939;BME280;47897;50.322;18.892;2022-08-01T10:40:29;98205.29;;;21.97;62.16
61939;BME280;47897;50.322;18.892;2022-08-01T10:42:58;98205.86;;;22.01;61.07
61939;BME280;47897;50.322;18.892;2022-08-01T10:45:26;98203.25;;;22.04;61.96
61939;BME280;47897;50.322;18.892;2022-08-01T10:50:42;98209.23;;;22.10;62.49
61939;BME280;47897;50.322;18.892;2022-08-01T10:53:14;98208.60;;;22.14;61.83
61939;BME280;47897;50.322;18.892;2022-08-01T10:55:59;98210.08;;;22.14;61.36
61939;BME280;47897;50.322;18.892;2022-08-01T10:58:38;98211.55;;;22.13;63.19
61939;BME280;47897;50.322;18.892;2022-08-01T11:03:43;98215.33;;;22.14;61.95
61939;BME280;47897;50.322;18.892;2022-08-01T11:06:17;98211.38;;;22.11;61.87
61939;BME280;47897;50.322;18.892;2022-08-01T11:08:51;98210.93;;;22.10;62.09
61939;BME280;47897;50.322;18.892;2022-08-01T11:11:19;98213.23;;;22.11;62.91
61939;BME280;47897;50.322;18.892;2022-08-01T11:14:05;98216.90;;;22.11;63.29
61939;BME280;47897;50.322;18.892;2022-08-01T11:16:40;98212.77;;;22.13;64.20
61939;BME280;47897;50.322;18.892;2022-08-01T11:19:08;98214.33;;;22.15;64.08
61939;BME280;47897;50.322;18.892;2022-08-01T11:27:16;98213.32;;;22.13;63.27
61939;BME280;47897;50.322;18.892;2022-08-01T11:29:43;98213.31;;;22.13;63.74
61939;BME280;47897;50.322;18.892;2022-08-01T11:32:26;98212.56;;;22.18;63.90
61939;BME280;47897;50.322;18.892;2022-08-01T11:34:55;98210.91;;;22.27;62.35
61939;BME280;47897;50.322;18.892;2022-08-01T11:37:23;98203.34;;;22.34;62.09
61939;BME280;47897;50.322;18.892;2022-08-01T11:40:18;98202.61;;;22.34;59.93
61939;BME280;47897;50.322;18.892;2022-08-01T11:42:47;98201.05;;;22.26;61.11
61939;BME280;47897;50.322;18.892;2022-08-01T11:45:14;98199.77;;;22.19;60.87
61939;BME280;47897;50.322;18.892;2022-08-01T11:47:49;98195.94;;;22.16;61.22
61939;BME280;47897;50.322;18.892;2022-08-01T11:53:06;98194.08;;;22.32;63.39
61939;BME280;47897;50.322;18.892;2022-08-01T11:55:34;98192.44;;;22.47;63.15
61939;BME280;47897;50.322;18.892;2022-08-01T11:58:06;98191.21;;;22.55;63.32
61939;BME280;47897;50.322;18.892;2022-08-01T12:00:33;98194.02;;;22.63;63.40
61939;BME280;47897;50.322;18.892;2022-08-01T12:03:02;98193.40;;;22.68;63.84
61939;BME280;47897;50.322;18.892;2022-08-01T12:05:31;98195.71;;;22.75;63.43
61939;BME280;47897;50.322;18.892;2022-08-01T12:08:00;98191.61;;;22.78;62.90
61939;BME280;47897;50.322;18.892;2022-08-01T12:10:29;98185.58;;;22.80;62.54
61939;BME280;47897;50.322;18.892;2022-08-01T12:13:05;98186.04;;;22.75;62.34
61939;BME280;47897;50.322;18.892;2022-08-01T12:15:34;98186.89;;;22.74;63.33
61939;BME280;47897;50.322;18.892;2022-08-01T12:18:06;98190.34;;;22.77;63.55
61939;BME280;47897;50.322;18.892;2022-08-01T12:20:35;98186.17;;;22.77;63.53
61939;BME280;47897;50.322;18.892;2022-08-01T12:23:07;98185.54;;;22.77;63.67
61939;BME280;47897;50.322;18.892;2022-08-01T12:25:35;98185.08;;;22.80;64.07
61939;BME280;47897;50.322;18.892;2022-08-01T12:28:05;98186.20;;;22.83;63.29
61939;BME280;47897;50.322;18.892;2022-08-01T12:30:34;98183.75;;;22.79;62.44
61939;BME280;47897;50.322;18.892;2022-08-01T12:33:07;98181.54;;;22.72;63.38
61939;BME280;47897;50.322;18.892;2022-08-01T12:35:37;98183.95;;;22.74;64.15
61939;BME280;47897;50.322;18.892;2022-08-01T12:38:13;98182.94;;;22.73;62.31
61939;BME280;47897;50.322;18.892;2022-08-01T12:40:42;98181.23;;;22.71;63.55
61939;BME280;47897;50.322;18.892;2022-08-01T12:43:15;98179.10;;;22.70;63.09
61939;BME280;47897;50.322;18.892;2022-08-01T12:45:43;98175.75;;;22.70;63.12
61939;BME280;47897;50.322;18.892;2022-08-01T12:48:13;98174.96;;;22.69;63.38
61939;BME280;47897;50.322;18.892;2022-08-01T12:50:43;98175.46;;;22.71;63.28
61939;BME280;47897;50.322;18.892;2022-08-01T12:53:11;98172.89;;;22.76;63.75
61939;BME280;47897;50.322;18.892;2022-08-01T12:55:54;98173.48;;;22.83;62.73
61939;BME280;47897;50.322;18.892;2022-08-01T12:58:22;98167.13;;;22.85;63.08
61939;BME280;47897;50.322;18.892;2022-08-01T13:00:50;98171.96;;;22.92;64.22
61939;BME280;47897;50.322;18.892;2022-08-01T13:03:19;98168.80;;;22.97;63.34
61939;BME280;47897;50.322;18.892;2022-08-01T13:11:09;98171.27;;;23.08;64.59
61939;BME280;47897;50.322;18.892;2022-08-01T13:13:41;98170.84;;;23.20;64.16
61939;BME280;47897;50.322;18.892;2022-08-01T13:16:10;98170.98;;;23.26;62.76
61939;BME280;47897;50.322;18.892;2022-08-01T13:18:38;98162.09;;;23.30;62.83
61939;BME280;47897;50.322;18.892;2022-08-01T13:21:22;98160.85;;;23.36;62.88
61939;BME280;47897;50.322;18.892;2022-08-01T13:29:05;98165.45;;;23.43;62.59
61939;BME280;47897;50.322;18.892;2022-08-01T13:31:34;98162.35;;;23.45;63.59
61939;BME280;47897;50.322;18.892;2022-08-01T13:34:02;98159.73;;;23.51;63.36
61939;BME280;47897;50.322;18.892;2022-08-01T13:36:29;98162.05;;;23.53;62.70
61939;BME280;47897;50.322;18.892;2022-08-01T13:38:58;98160.00;;;23.54;62.94